Time;durP1;ratioP1;P1;durP2;ratioP2;P2;SDS_P1;SDS_P2;PMS_P1;PMS_P2;Temp;Humidity;BMP_temperature;BMP_pressure;BME280_temperature;BME280_humidity;BME280_pressure;Samples;Min_cycle;Max_cycle;Signal;HPM_P1;HPM_P2
2022/09/23 00:01:10;;;;;;;96.43;48.35;;;;;;;12.22;79.62;99499.19;6251107;22;20018;-87
2022/09/23 00:03:40;;;;;;;83.20;40.78;;;;;;;11.99;79.53;99468.34;6226723;22;20041;-87
2022/09/23 00:06:15;;;;;;;78.43;37.75;;;;;;;11.95;79.53;99478.31;6253588;22;20472;-87
2022/09/23 00:08:45;;;;;;;79.50;37.38;;;;;;;11.97;79.97;99474.13;6252690;22;20475;-89
2022/09/23 00:13:46;;;;;;;78.88;36.38;;;;;;;11.90;79.82;99471.06;6264554;22;20137;-88
2022/09/23 00:16:16;;;;;;;76.55;35.03;;;;;;;11.93;79.61;99475.91;6251440;22;20464;-91
2022/09/23 00:18:42;;;;;;;85.18;34.65;;;;;;;11.87;79.95;99466.22;6228006;22;20015;-87
2022/09/23 00:21:12;;;;;;;70.47;32.55;;;;;;;11.80;80.06;99468.56;6226108;22;20015;-91
2022/09/23 00:23:40;;;;;;;72.70;32.28;;;;;;;12.04;79.90;99501.06;6204043;22;20019;-87
2022/09/23 00:26:08;;;;;;;73.15;33.45;;;;;;;11.82;79.67;99460.88;6227200;22;20339;-87
2022/09/23 00:31:08;;;;;;;72.75;31.40;;;;;;;12.02;79.70;99499.75;6279121;22;20022;-87
2022/09/23 00:33:34;;;;;;;74.65;32.83;;;;;;;12.03;79.91;99504.13;6203321;22;20019;-87
2022/09/23 00:36:03;;;;;;;74.82;32.22;;;;;;;11.98;80.06;99507.81;6283772;22;20016;-87
2022/09/23 00:38:29;;;;;;;71.68;30.13;;;;;;;11.93;80.29;99502.50;6283681;22;20074;-87
2022/09/23 00:41:16;;;;;;;74.85;30.17;;;;;;;11.84;80.63;99496.13;6233027;22;20016;-89
2022/09/23 00:43:54;;;;;;;74.47;30.52;;;;;;;11.88;80.46;99506.16;6284451;22;20046;-87
2022/09/23 00:46:40;;;;;;;79.38;31.60;;;;;;;11.82;80.45;99495.63;6274656;22;20035;-87
2022/09/23 00:49:23;;;;;;;72.22;32.20;;;;;;;11.90;80.37;99501.19;6285701;22;20019;-87
2022/09/23 00:51:55;;;;;;;79.05;31.73;;;;;;;11.68;80.13;99463.69;6256211;22;20016;-89
2022/09/23 00:54:26;;;;;;;82.72;32.00;;;;;;;11.97;79.81;99508.94;6281841;22;20027;-88
2022/09/23 00:56:53;;;;;;;80.82;31.15;;;;;;;11.90;80.01;99506.66;6228608;22;20019;-86
2022/09/23 00:59:23;;;;;;;71.75;28.60;;;;;;;11.86;79.76;99492.00;6280234;22;20124;-86
2022/09/23 01:01:53;;;;;;;70.47;28.17;;;;;;;11.79;79.67;99474.34;6252413;22;20075;-87
2022/09/23 01:04:22;;;;;;;66.28;26.70;;;;;;;11.74;79.55;99470.66;6230599;22;20016;-86
2022/09/23 01:06:51;;;;;;;63.22;26.10;;;;;;;11.85;80.04;99484.06;6253466;22;20053;-86
2022/09/23 01:09:18;;;;;;;62.75;25.75;;;;;;;11.80;80.10;99484.22;6229149;22;20019;-87
2022/09/23 01:11:52;;;;;;;;;;;;;;;11.92;79.75;99509.06;6280952;22;20015;-85
2022/09/23 01:14:43;;;;;;;57.38;23.10;;;;;;;11.82;80.03;99504.69;6280742;22;19915;-87
2022/09/23 01:17:40;;;;;;;67.15;24.95;;;;;;;11.62;80.55;99480.56;6279730;22;20061;-87
2022/09/23 01:20:25;;;;;;;58.80;24.42;;;;;;;11.75;80.89;99502.41;6280789;22;20019;-85
2022/09/23 01:23:28;;;;;;;55.33;23.55;;;;;;;11.73;80.58;99496.44;6280073;22;20023;-92
2022/09/23 01:26:25;;;;;;;52.45;21.10;;;;;;;11.70;80.24;99505.28;6279187;22;20024;-87
2022/09/23 01:29:22;;;;;;;48.03;19.67;;;;;;;11.60;79.98;99491.06;6226883;22;20016;-87
2022/09/23 01:32:33;;;;;;;46.25;19.20;;;;;;;11.68;80.29;99503.97;6279572;22;20037;-87
2022/09/23 01:37:51;;;;;;;54.20;21.67;;;;;;;11.65;80.04;99513.59;6281009;22;20105;-93
2022/09/23 01:43:26;;;;;;;58.42;22.27;;;;;;;11.72;80.07;99513.16;6278328;22;20019;-89
2022/09/23 01:45:58;;;;;;;57.60;22.58;;;;;;;11.71;79.79;99512.34;6168454;22;20022;-87
2022/09/23 01:48:27;;;;;;;53.75;22.10;;;;;;;11.70;79.91;99512.69;6278298;22;20465;-87
2022/09/23 01:51:00;;;;;;;56.72;22.60;;;;;;;11.74;79.76;99508.19;6225758;22;20110;-87
2022/09/23 01:53:33;;;;;;;54.97;21.70;;;;;;;11.81;79.62;99513.22;6277858;22;20027;-87
2022/09/23 01:56:06;;;;;;;60.92;22.42;;;;;;;11.62;79.58;99475.09;6278652;22;20012;-87
2022/09/23 01:58:46;;;;;;;56.00;22.92;;;;;;;11.83;79.33;99511.78;6253779;22;20030;-86
2022/09/23 02:01:20;;;;;;;60.65;21.95;;;;;;;11.84;79.43;99510.66;6279512;22;20022;-87
2022/09/23 02:03:55;;;;;;;57.63;22.67;;;;;;;11.60;79.66;99486.38;6250630;22;20024;-86
2022/09/23 02:06:28;;;;;;;63.50;23.50;;;;;;;11.70;79.97;99505.28;6226291;22;20023;-87
2022/09/23 02:09:00;;;;;;;65.85;22.92;;;;;;;11.63;79.66;99488.50;6278196;22;20224;-86
2022/09/23 02:11:29;;;;;;;65.20;24.27;;;;;;;11.83;79.86;99509.03;6278928;22;20046;-87
2022/09/23 02:14:01;;;;;;;65.72;24.30;;;;;;;11.68;79.76;99484.78;6252091;22;20515;-91
2022/09/23 02:16:32;;;;;;;67.05;24.25;;;;;;;11.66;79.49;99473.38;6227102;22;20020;-88
2022/09/23 02:19:14;;;;;;;65.05;23.50;;;;;;;11.61;79.61;99478.97;6252298;22;20019;-95
2022/09/23 02:21:50;;;;;;;67.45;25.75;;;;;;;11.73;79.79;99488.22;6252580;22;20020;-95
2022/09/23 02:24:20;;;;;;;66.47;24.35;;;;;;;11.63;79.65;99469.31;6251700;22;20019;-87
2022/09/23 02:26:54;;;;;;;67.07;24.27;;;;;;;11.77;79.27;99488.38;6279138;22;20102;-87
2022/09/23 02:29:35;;;;;;;68.97;25.05;;;;;;;11.90;79.40;99512.16;6252164;22;20357;-87
2022/09/23 02:32:04;;;;;;;65.38;25.08;;;;;;;11.92;79.41;99506.34;6251092;22;20019;-87
2022/09/23 02:34:40;;;;;;;63.55;23.92;;;;;;;11.62;79.97;99481.41;6251022;22;20445;-92
2022/09/23 02:37:15;;;;;;;68.85;23.90;;;;;;;11.77;80.39;99508.34;6277679;22;20026;-87
2022/09/23 02:40:12;;;;;;;57.47;23.85;;;;;;;11.81;79.87;99494.03;6277164;22;20023;-95
2022/09/23 02:43:11;;;;;;;57.92;22.90;;;;;;;11.84;79.42;99494.22;6277421;22;20027;-88
2022/09/23 02:45:38;;;;;;;62.30;23.02;;;;;;;11.86;79.36;99492.00;6277412;22;20069;-86
2022/09/23 02:48:13;;;;;;;65.97;22.15;;;;;;;11.71;79.63;99476.75;6250129;22;20050;-87
2022/09/23 02:50:41;;;;;;;59.10;22.23;;;;;;;11.80;79.68;99484.22;6276912;22;20024;-87
2022/09/23 02:53:07;;;;;;;62.22;23.23;;;;;;;11.92;79.54;99496.22;6278419;22;20015;-87
2022/09/23 02:55:33;;;;;;;65.93;23.55;;;;;;;11.81;79.13;99466.66;6277099;22;20108;-87
2022/09/23 02:58:01;;;;;;;59.83;23.63;;;;;;;11.82;78.93;99471.81;6277821;22;20560;-87
2022/09/23 03:00:51;;;;;;;58.92;24.42;;;;;;;11.90;79.02;99486.69;6250344;22;20015;-86
2022/09/23 03:03:43;;;;;;;62.03;22.88;;;;;;;12.01;79.26;99498.16;6224971;22;20027;-93
2022/09/23 03:06:38;;;;;;;64.50;23.40;;;;;;;12.04;78.82;99495.59;6197788;22;20020;-89
2022/09/23 03:09:42;;;;;;;66.15;23.27;;;;;;;12.05;78.79;99497.19;6248478;22;20015;-86
2022/09/23 03:12:21;;;;;;;61.17;25.25;;;;;;;11.90;78.72;99490.22;6247338;22;20018;-86
2022/09/23 03:15:19;;;;;;;69.18;25.58;;;;;;;12.04;78.78;99503.00;6222324;22;20019;-86
2022/09/23 03:18:13;;;;;;;78.18;25.88;;;;;;;11.84;78.31;99471.50;6222895;22;20028;-84
2022/09/23 03:20:45;;;;;;;65.60;27.35;;;;;;;11.98;77.84;99481.22;6248800;22;20046;-84
2022/09/23 03:23:14;;;;;;;86.88;29.92;;;;;;;12.15;77.69;99507.06;6224938;22;20024;-86
2022/09/23 03:25:44;;;;;;;78.88;28.40;;;;;;;12.06;77.75;99498.03;6277925;22;20016;-86
2022/09/23 03:28:13;;;;;;;83.85;28.77;;;;;;;12.17;77.93;99507.56;6291276;22;20022;-82
2022/09/23 03:30:42;;;;;;;90.30;29.10;;;;;;;12.01;77.63;99488.00;6273749;22;20026;-82
2022/09/23 03:33:11;;;;;;;76.75;29.05;;;;;;;11.97;78.05;99482.34;6276903;22;20020;-83
2022/09/23 03:38:37;;;;;;;78.88;30.13;;;;;;;12.07;78.18;99489.47;6303569;22;20049;-84
2022/09/23 03:41:04;;;;;;;88.35;32.15;;;;;;;12.03;78.07;99477.53;6268919;22;20020;-85
2022/09/23 03:43:31;;;;;;;84.20;31.20;;;;;;;11.95;78.13;99459.97;6256875;22;20043;-85
2022/09/23 03:45:58;;;;;;;94.68;34.75;;;;;;;12.00;78.12;99464.47;6233034;22;20022;-85
2022/09/23 03:48:24;;;;;;;93.28;34.05;;;;;;;11.97;78.08;99444.00;6257433;22;20472;-85
2022/09/23 03:50:50;;;;;;;88.17;33.23;;;;;;;11.72;78.18;99409.09;6282437;22;20027;-86
2022/09/23 03:53:19;;;;;;;99.38;36.53;;;;;;;12.26;78.37;99485.66;6229406;22;20019;-88
2022/09/23 03:55:46;;;;;;;91.70;34.35;;;;;;;12.11;78.16;99463.03;6264775;22;20107;-92
2022/09/23 03:58:12;;;;;;;92.45;33.90;;;;;;;12.25;78.44;99487.59;6296947;22;20019;-86
2022/09/23 04:00:39;;;;;;;84.78;32.55;;;;;;;12.14;78.19;99475.31;6284825;22;20031;-86
2022/09/23 04:03:05;;;;;;;85.43;31.48;;;;;;;12.22;78.20;99474.53;6276699;22;20110;-86
2022/09/23 04:05:32;;;;;;;74.25;29.95;;;;;;;11.94;77.88;99419.97;6276130;22;20043;-85
2022/09/23 04:07:58;;;;;;;75.05;27.35;;;;;;;12.44;77.23;99484.53;6250765;22;20445;-86
2022/09/23 04:10:24;;;;;;;73.00;27.73;;;;;;;12.27;77.31;99466.13;6277064;22;20030;-88
2022/09/23 04:12:50;;;;;;;68.65;28.17;;;;;;;12.30;77.14;99462.75;6252533;22;20016;-89
2022/09/23 04:15:16;;;;;;;61.35;26.83;;;;;;;12.33;77.22;99453.91;6203280;22;20011;-86
2022/09/23 04:17:51;;;;;;;63.28;24.50;;;;;;;12.36;77.11;99460.69;6202005;22;20098;-88
2022/09/23 04:20:21;;;;;;;65.57;25.13;;;;;;;12.43;76.52;99467.28;6293900;22;20046;-91
2022/09/23 04:22:57;;;;;;;62.40;24.52;;;;;;;12.22;76.81;99447.94;6278720;22;20016;-89
2022/09/23 04:25:23;;;;;;;51.38;20.85;;;;;;;12.15;77.20;99431.16;6202381;22;20016;-93
2022/09/23 04:27:52;;;;;;;45.47;20.67;;;;;;;12.20;76.46;99430.19;6207710;22;20015;-86
2022/09/23 04:30:18;;;;;;;39.45;19.40;;;;;;;12.12;75.53;99392.59;6235239;22;20102;-85
2022/09/23 04:32:49;;;;;;;47.03;19.05;;;;;;;12.38;75.62;99426.34;6239852;22;20026;-88
2022/09/23 04:35:16;;;;;;;44.47;19.05;;;;;;;12.49;75.22;99431.50;6239648;22;20097;-89
2022/09/23 04:37:42;;;;;;;39.58;17.13;;;;;;;12.46;74.84;99422.78;6233156;22;20034;-90
2022/09/23 04:40:08;;;;;;;47.08;16.67;;;;;;;12.58;74.40;99421.31;6200317;22;20015;-89
2022/09/23 04:42:34;;;;;;;42.35;16.33;;;;;;;12.50;75.16;99408.41;6202209;22;20016;-90
2022/09/23 04:45:00;;;;;;;37.70;15.50;;;;;;;12.55;74.01;99408.25;6200663;22;20022;-87
2022/09/23 04:47:27;;;;;;;42.78;16.58;;;;;;;12.75;74.68;99446.00;6248238;22;20019;-88
2022/09/23 04:49:53;;;;;;;61.72;15.68;;;;;;;12.72;73.00;99443.09;6249061;22;20020;-89
2022/09/23 04:52:18;;;;;;;37.45;14.93;;;;;;;12.76;73.06;99441.31;6249339;22;20024;-87
2022/09/23 04:54:44;;;;;;;46.72;14.70;;;;;;;12.71;72.54;99423.06;6222831;22;20066;-87
2022/09/23 04:57:10;;;;;;;30.20;14.88;;;;;;;12.83;72.31;99436.13;6199440;22;20454;-88
2022/09/23 04:59:36;;;;;;;28.38;14.07;;;;;;;12.83;72.14;99447.91;6225585;22;20047;-90
2022/09/23 05:02:02;;;;;;;31.25;14.55;;;;;;;12.77;73.19;99440.19;6250313;22;20015;-88
2022/09/23 05:04:30;;;;;;;32.83;14.50;;;;;;;12.87;72.34;99457.09;6222488;22;20039;-87
2022/09/23 05:06:56;;;;;;;31.05;13.95;;;;;;;12.84;72.75;99440.50;6248064;22;20397;-87
2022/09/23 05:09:22;;;;;;;34.70;14.55;;;;;;;12.77;72.75;99410.81;6275634;22;20154;-86
2022/09/23 05:11:48;;;;;;;31.75;13.95;;;;;;;12.82;71.51;99443.56;6247551;22;20150;-89
2022/09/23 05:14:14;;;;;;;29.85;13.65;;;;;;;12.78;71.13;99422.56;6277749;22;20069;-89
2022/09/23 05:16:40;;;;;;;40.00;15.18;;;;;;;12.98;71.69;99449.38;6200027;22;20022;-89
2022/09/23 05:19:06;;;;;;;38.42;14.75;;;;;;;12.87;71.72;99426.94;6226186;22;20073;-90
2022/09/23 05:21:32;;;;;;;34.88;13.68;;;;;;;12.95;72.16;99450.00;6225407;22;20015;-90
2022/09/23 05:23:59;;;;;;;35.50;14.00;;;;;;;12.86;71.93;99430.81;6252306;22;20015;-89
2022/09/23 05:26:28;;;;;;;33.22;14.57;;;;;;;12.79;70.92;99396.78;6200305;22;20365;-89
2022/09/23 05:28:54;;;;;;;30.23;13.27;;;;;;;13.13;70.42;99445.28;6198944;22;20026;-91
2022/09/23 05:31:22;;;;;;;37.33;14.52;;;;;;;13.05;70.62;99435.16;6251909;22;20426;-87
2022/09/23 05:34:00;;;;;;;29.33;14.82;;;;;;;13.06;70.63;99423.81;6199824;22;20016;-90
2022/09/23 05:36:27;;;;;;;34.00;15.73;;;;;;;13.32;71.28;99459.47;6199324;22;20027;-90
2022/09/23 05:38:55;;;;;;;63.40;19.13;;;;;;;13.31;70.61;99471.59;6223307;22;20449;-91
2022/09/23 05:41:22;;;;;;;39.47;16.33;;;;;;;13.27;71.38;99462.38;6201570;22;20016;-93
2022/09/23 05:43:50;;;;;;;48.00;17.40;;;;;;;13.28;72.01;99458.53;6226056;22;20063;-92
2022/09/23 05:46:24;;;;;;;42.25;17.77;;;;;;;13.22;71.96;99453.50;6225425;22;20069;-91
2022/09/23 05:48:50;;;;;;;41.22;16.30;;;;;;;13.31;71.62;99468.84;6224071;22;20503;-88
2022/09/23 05:51:19;;;;;;;36.30;18.20;;;;;;;13.08;71.79;99429.00;6224354;22;20369;-89
2022/09/23 05:53:47;;;;;;;31.50;17.08;;;;;;;13.26;72.72;99449.81;6250057;22;20016;-94
2022/09/23 05:56:17;;;;;;;42.63;17.25;;;;;;;13.32;72.13;99445.75;6276471;22;20019;-93
2022/09/23 05:58:44;;;;;;;40.58;16.92;;;;;;;13.32;70.64;99448.50;6198112;22;20093;-89
2022/09/23 06:01:20;;;;;;;76.90;18.40;;;;;;;13.42;70.37;99463.81;6223177;22;20015;-88
2022/09/23 06:03:47;;;;;;;84.03;19.48;;;;;;;13.23;70.92;99436.69;6223789;22;20099;-89
2022/09/23 06:06:14;;;;;;;75.18;19.67;;;;;;;13.28;70.48;99446.75;6249397;22;20019;-90
2022/09/23 06:08:41;;;;;;;70.63;18.05;;;;;;;13.22;70.90;99431.53;6224030;22;20102;-88
2022/09/23 06:11:08;;;;;;;73.78;21.73;;;;;;;13.21;70.88;99414.28;6247113;22;20107;-86
2022/09/23 06:13:38;;;;;;;72.32;19.15;;;;;;;13.68;71.35;99454.66;6222961;22;20019;-89
2022/09/23 06:16:13;;;;;;;55.47;19.75;;;;;;;13.58;70.06;99426.44;6250806;22;20011;-90
2022/09/23 06:18:41;;;;;;;66.75;18.95;;;;;;;13.56;69.46;99411.41;6224202;22;20016;-91
2022/09/23 06:21:11;;;;;;;55.70;17.00;;;;;;;13.51;70.10;99404.16;6277147;22;20015;-85
2022/09/23 06:23:37;;;;;;;77.40;19.33;;;;;;;13.77;70.33;99436.19;6276683;22;20023;-86
2022/09/23 06:26:05;;;;;;;60.40;16.87;;;;;;;13.64;69.26;99391.31;6275743;22;20069;-86
2022/09/23 06:28:33;;;;;;;51.42;14.68;;;;;;;14.06;68.79;99454.63;6249288;22;20020;-86
2022/09/23 06:31:09;;;;;;;24.75;11.43;;;;;;;14.05;67.90;99464.81;6276356;22;20015;-87
2022/09/23 06:33:35;;;;;;;35.63;12.10;;;;;;;14.12;68.14;99475.28;6223559;22;20069;-91
2022/09/23 06:36:04;;;;;;;29.83;13.10;;;;;;;13.99;68.49;99457.88;6223445;22;20016;-89
2022/09/23 06:38:35;;;;;;;27.88;12.23;;;;;;;14.02;67.11;99468.22;6249081;22;20355;-85
2022/09/23 06:41:02;;;;;;;31.05;11.98;;;;;;;14.22;67.43;99474.88;6276840;22;20016;-86
2022/09/23 06:43:29;;;;;;;38.08;12.57;;;;;;;14.20;66.49;99465.34;6224081;22;20023;-86
2022/09/23 06:45:57;;;;;;;33.60;12.40;;;;;;;14.06;66.04;99455.41;6223678;22;20023;-87
2022/09/23 06:48:25;;;;;;;21.35;9.95;;;;;;;14.22;66.86;99457.59;6223467;22;20053;-87
2022/09/23 06:50:52;;;;;;;35.42;11.38;;;;;;;14.08;66.28;99436.66;6248392;22;20019;-91
2022/09/23 06:53:23;;;;;;;32.70;11.63;;;;;;;14.05;67.77;99447.53;6248500;22;20401;-88
2022/09/23 06:56:10;;;;;;;62.03;13.15;;;;;;;13.88;67.21;99422.91;6249082;22;20023;-88
2022/09/23 06:58:37;;;;;;;52.72;13.10;;;;;;;14.25;66.72;99463.22;6249005;22;20024;-89
2022/09/23 07:01:06;;;;;;;28.88;9.95;;;;;;;14.26;66.71;99455.78;6250085;22;20012;-88
2022/09/23 07:03:33;;;;;;;30.70;10.43;;;;;;;14.15;67.14;99427.88;6225331;22;20054;-90
2022/09/23 07:06:00;;;;;;;;;;;;;;;14.31;66.47;99458.34;6199891;22;20015;-89
2022/09/23 07:08:27;;;;;;;;;;;;;;;14.38;67.06;99458.63;6224457;22;19972;-89
2022/09/23 07:10:56;;;;;;;47.30;12.38;;;;;;;14.46;66.44;99446.72;6224568;22;19937;-88
2022/09/23 07:13:22;;;;;;;30.38;10.98;;;;;;;14.47;65.44;99431.84;6248294;22;20019;-89
2022/09/23 07:15:53;;;;;;;27.05;10.50;;;;;;;14.69;66.14;99457.44;6223722;22;20015;-89
2022/09/23 07:18:22;;;;;;;20.10;9.50;;;;;;;14.62;65.76;99430.47;6224186;22;20019;-89
2022/09/23 07:20:49;;;;;;;25.15;10.90;;;;;;;14.84;64.89;99434.00;6224515;22;20026;-89
2022/09/23 07:23:16;;;;;;;27.05;11.55;;;;;;;14.80;63.76;99429.16;6276383;22;20012;-89
2022/09/23 07:25:45;;;;;;;48.70;11.77;;;;;;;14.62;63.55;99411.19;6223986;22;20097;-89
2022/09/23 07:33:13;;;;;;;21.45;9.57;;;;;;;14.72;63.22;99420.97;6275991;22;20346;-89
2022/09/23 07:35:42;;;;;;;22.67;10.02;;;;;;;14.57;64.35;99401.22;6199408;22;20020;-91
2022/09/23 07:40:38;;;;;;;31.65;10.85;;;;;;;14.71;63.28;99436.69;6277161;22;20088;-90
2022/09/23 07:43:06;;;;;;;44.10;12.40;;;;;;;14.70;62.54;99429.59;6250683;22;20102;-91
2022/09/23 07:45:33;;;;;;;36.10;11.27;;;;;;;14.80;64.25;99422.84;6277993;22;20047;-88
2022/09/23 07:48:00;;;;;;;19.88;9.65;;;;;;;14.98;63.21;99435.28;6250237;22;20365;-89
2022/09/23 07:50:27;;;;;;;25.15;9.40;;;;;;;14.91;62.22;99421.28;6224168;22;20539;-90
2022/09/23 07:52:54;;;;;;;20.33;9.38;;;;;;;14.92;62.18;99414.63;6198546;22;20422;-87
2022/09/23 07:55:22;;;;;;;24.33;9.90;;;;;;;14.92;61.86;99414.63;6248984;22;20030;-88
2022/09/23 07:57:48;;;;;;;22.00;9.43;;;;;;;14.52;62.05;99376.66;6248290;22;20473;-90
2022/09/23 08:00:14;;;;;;;26.10;11.23;;;;;;;14.53;62.54;99381.00;6248513;22;20054;-86
2022/09/23 08:02:42;;;;;;;22.77;11.85;;;;;;;14.61;62.76;99415.09;6243222;22;20450;-89
2022/09/23 08:05:08;;;;;;;29.05;11.10;;;;;;;14.36;63.01;99394.88;6243471;23;20016;-88
2022/09/23 08:07:35;;;;;;;30.38;13.05;;;;;;;14.29;64.82;99409.16;6243439;23;20020;-89
2022/09/23 08:10:01;;;;;;;34.33;12.07;;;;;;;14.39;64.43;99420.91;6194467;23;20065;-87
2022/09/23 08:12:29;;;;;;;28.23;10.05;;;;;;;14.40;64.62;99439.81;6219605;23;20103;-88
2022/09/23 08:14:55;;;;;;;26.10;10.32;;;;;;;14.27;64.25;99405.97;6219548;23;20162;-88
2022/09/23 08:17:21;;;;;;;55.22;14.40;;;;;;;14.36;63.36;99419.63;6243931;23;20047;-88
2022/09/23 08:19:48;;;;;;;76.50;31.53;;;;;;;14.57;65.38;99436.97;6247640;22;20016;-90
2022/09/23 08:22:14;;;;;;;39.13;15.23;;;;;;;14.44;62.30;99424.28;6246754;22;20020;-87
2022/09/23 08:24:40;;;;;;;48.67;17.40;;;;;;;14.38;61.69;99413.81;6220671;23;20074;-89
2022/09/23 08:27:07;;;;;;;32.88;11.65;;;;;;;14.37;61.39;99409.44;6247735;23;20454;-89
2022/09/23 08:29:33;;;;;;;81.60;20.25;;;;;;;14.51;61.75;99416.31;6220854;23;20020;-89
2022/09/23 08:32:00;;;;;;;48.97;24.70;;;;;;;14.59;61.67;99422.06;6196501;23;20023;-91
2022/09/23 08:34:27;;;;;;;42.17;13.93;;;;;;;14.67;60.85;99433.00;6196398;23;20264;-88
2022/09/23 08:36:53;;;;;;;29.48;14.27;;;;;;;14.54;61.32;99409.34;6220393;23;20020;-89
2022/09/23 08:39:20;;;;;;;23.92;10.05;;;;;;;14.56;60.42;99402.34;6245877;23;20103;-89
2022/09/23 08:41:52;;;;;;;22.25;7.70;;;;;;;14.68;59.97;99429.09;6246496;23;20086;-91
2022/09/23 08:44:25;;;;;;;31.20;10.77;;;;;;;14.47;59.59;99392.53;6196018;23;20012;-92
2022/09/23 08:47:04;;;;;;;11.18;6.43;;;;;;;14.65;58.86;99415.22;6164440;23;20512;-90
2022/09/23 08:49:46;;;;;;;23.17;9.15;;;;;;;14.63;59.33;99407.28;6188740;23;20024;-91
2022/09/23 08:52:31;;;;;;;114.70;52.78;;;;;;;14.76;59.69;99433.72;6189201;23;20047;-90
2022/09/23 08:54:58;;;;;;;22.30;8.57;;;;;;;14.52;59.40;99406.09;6214790;23;20025;-89
2022/09/23 08:57:33;;;;;;;;;;;;;;;14.74;60.96;99444.28;6189672;23;20028;-89
2022/09/23 09:00:03;;;;;;;39.38;12.18;;;;;;;14.69;60.93;99443.66;6165502;23;20380;-92
2022/09/23 09:02:32;;;;;;;;;;;;;;;14.54;60.24;99451.41;6190515;23;20016;-91
2022/09/23 09:05:08;;;;;;;40.35;18.73;;;;;;;14.53;61.50;99438.78;6189510;23;19928;-89
2022/09/23 09:07:37;;;;;;;53.63;13.50;;;;;;;14.51;62.25;99432.81;6189329;23;20024;-89
2022/09/23 09:10:23;;;;;;;54.47;11.57;;;;;;;14.53;61.46;99436.03;6164932;23;20020;-89
2022/09/23 09:12:59;;;;;;;31.85;11.95;;;;;;;14.28;62.65;99404.81;6190714;23;20398;-92
2022/09/23 09:15:27;;;;;;;49.27;16.20;;;;;;;14.36;63.20;99441.63;6193764;23;20027;-89
2022/09/23 09:18:05;;;;;;;37.28;13.30;;;;;;;14.29;63.43;99431.16;6173714;23;20395;-89
2022/09/23 09:20:57;;;;;;;30.08;10.65;;;;;;;14.29;63.52;99438.63;6141400;23;20021;-93
2022/09/23 09:23:51;;;;;;;31.55;11.93;;;;;;;14.25;63.71;99434.94;6167614;23;20035;-88
2022/09/23 09:26:26;;;;;;;39.25;11.27;;;;;;;14.24;63.58;99411.34;6250272;22;20016;-89
2022/09/23 09:28:58;;;;;;;107.97;32.63;;;;;;;14.12;63.54;99370.00;6221215;23;20027;-89
2022/09/23 09:31:41;;;;;;;73.20;28.35;;;;;;;14.48;64.21;99407.91;6247354;23;20364;-86
2022/09/23 09:34:23;;;;;;;35.47;10.23;;;;;;;14.45;61.89;99397.56;6250592;22;20012;-86
2022/09/23 09:39:52;;;;;;;38.22;9.82;;;;;;;14.30;61.82;99375.06;6226136;22;20349;-86
2022/09/23 09:42:39;;;;;;;34.05;10.93;;;;;;;14.53;61.86;99394.75;6247934;22;20016;-85
2022/09/23 09:45:30;;;;;;;45.30;15.77;;;;;;;14.55;60.99;99388.94;6247938;22;20012;-93
2022/09/23 09:48:26;;;;;;;21.88;10.32;;;;;;;14.78;60.79;99379.16;6248581;23;20020;-89
2022/09/23 09:50:54;;;;;;;40.05;8.77;;;;;;;14.99;59.42;99364.53;6222980;23;20012;-89
2022/09/23 09:53:29;;;;;;;18.48;7.32;;;;;;;15.35;58.35;99388.56;6221964;23;20098;-87
2022/09/23 09:56:04;;;;;;;18.00;6.88;;;;;;;15.53;57.58;99389.16;6248977;23;20020;-85
2022/09/23 09:58:52;;;;;;;24.10;7.55;;;;;;;15.68;55.93;99399.50;6247848;22;20078;-87
2022/09/23 10:01:23;;;;;;;22.80;6.97;;;;;;;15.77;54.81;99395.84;6224990;23;20047;-91
2022/09/23 10:03:52;;;;;;;19.25;6.95;;;;;;;15.69;55.34;99392.03;6246111;22;20020;-90
2022/09/23 10:06:31;;;;;;;25.35;6.90;;;;;;;15.79;54.82;99393.53;6222442;23;20016;-88
2022/09/23 10:09:11;;;;;;;12.93;6.57;;;;;;;15.72;54.86;99392.16;6247151;23;20016;-91
2022/09/23 10:11:38;;;;;;;22.45;7.82;;;;;;;15.37;55.58;99352.41;6198191;23;20016;-88
2022/09/23 10:14:18;;;;;;;15.52;7.70;;;;;;;15.68;56.43;99395.94;6222832;23;20043;-90
2022/09/23 10:17:04;;;;;;;37.13;8.57;;;;;;;15.59;56.38;99397.97;6221730;23;20023;-88
2022/09/23 10:19:30;;;;;;;23.10;8.60;;;;;;;15.28;56.32;99372.59;6180922;23;20020;-90
2022/09/23 10:22:04;;;;;;;17.20;7.03;;;;;;;15.17;56.45;99363.19;6183965;23;20729;-88
2022/09/23 10:24:37;;;;;;;21.20;6.70;;;;;;;15.29;56.11;99384.41;6207573;23;20465;-90
2022/09/23 10:27:08;;;;;;;12.93;5.35;;;;;;;15.24;53.88;99379.94;6231027;23;20258;-89
2022/09/23 10:29:47;;;;;;;10.10;5.07;;;;;;;15.08;53.29;99378.19;6206739;23;20046;-90
2022/09/23 10:32:27;;;;;;;16.55;5.38;;;;;;;15.02;52.54;99386.66;6229865;23;20078;-90
2022/09/23 10:35:08;;;;;;;11.45;5.63;;;;;;;15.03;54.11;99385.53;6204490;23;20516;-89
2022/09/23 10:37:53;;;;;;;12.25;5.68;;;;;;;14.90;53.54;99375.66;6204301;23;20798;-89
2022/09/23 10:46:38;;;;;;;16.23;4.93;;;;;;;15.09;53.24;99364.06;6208645;23;20040;-88
2022/09/23 10:49:37;;;;;;;16.40;4.88;;;;;;;15.21;54.19;99355.03;6184218;23;20020;-88
2022/09/23 10:52:15;;;;;;;25.08;6.00;;;;;;;15.24;53.21;99352.41;6255808;22;20016;-87
2022/09/23 10:54:50;;;;;;;18.20;5.80;;;;;;;15.10;53.27;99335.41;6232847;22;20310;-89
2022/09/23 10:57:39;;;;;;;19.98;7.43;;;;;;;15.20;53.63;99351.50;6209871;23;20095;-89
2022/09/23 11:00:39;;;;;;;17.42;8.93;;;;;;;15.22;52.09;99346.44;6258694;22;20008;-89
2022/09/23 11:03:24;;;;;;;34.33;10.82;;;;;;;15.10;52.71;99315.31;6161583;22;20003;-90
2022/09/23 11:06:03;;;;;;;14.68;7.47;;;;;;;15.19;53.20;99344.34;6237372;22;20049;-88
2022/09/23 11:08:42;;;;;;;19.02;8.05;;;;;;;14.85;52.76;99301.53;6145046;23;20052;-88
2022/09/23 11:11:16;;;;;;;20.42;9.02;;;;;;;15.16;53.38;99339.53;6172142;23;20043;-90
2022/09/23 11:13:59;;;;;;;19.90;7.65;;;;;;;15.15;52.78;99340.69;6173791;23;20017;-90
2022/09/23 11:16:41;;;;;;;19.73;8.93;;;;;;;15.20;53.33;99339.69;6187162;23;20025;-89
2022/09/23 11:19:47;;;;;;;61.28;25.23;;;;;;;15.12;53.92;99335.88;6102215;23;20557;-90
2022/09/23 11:22:22;;;;;;;20.55;9.32;;;;;;;15.14;53.26;99335.53;6079869;23;20339;-90
2022/09/23 11:25:05;;;;;;;20.13;8.50;;;;;;;15.10;53.14;99343.69;6104073;23;20024;-90
2022/09/23 11:27:59;;;;;;;24.52;9.68;;;;;;;15.00;53.65;99308.34;6147149;23;20021;-88
2022/09/23 11:30:40;;;;;;;35.78;10.57;;;;;;;15.24;53.56;99326.81;6100156;23;20076;-90
2022/09/23 11:33:15;;;;;;;20.23;9.65;;;;;;;15.25;53.48;99328.41;6121530;23;20079;-89
2022/09/23 11:35:49;;;;;;;19.90;10.18;;;;;;;14.99;53.83;99287.44;6096876;23;20079;-92
2022/09/23 11:38:24;;;;;;;19.60;9.27;;;;;;;15.03;53.80;99313.13;6121226;23;20068;-90
2022/09/23 11:41:16;;;;;;;19.85;9.52;;;;;;;15.00;53.84;99297.34;6143656;23;20021;-89
2022/09/23 11:43:46;;;;;;;28.10;9.75;;;;;;;14.69;54.86;99260.13;6166436;23;20023;-88
2022/09/23 11:46:36;;;;;;;23.20;8.73;;;;;;;14.87;55.43;99314.97;6142095;23;20013;-89
2022/09/23 11:49:16;;;;;;;18.58;7.30;;;;;;;14.86;55.61;99327.91;6142217;23;20940;-90
2022/09/23 11:51:59;;;;;;;27.25;8.95;;;;;;;14.86;56.52;99333.41;6157406;22;20016;-86
2022/09/23 11:54:34;;;;;;;24.75;9.38;;;;;;;14.91;56.57;99341.47;6233551;22;20111;-86
2022/09/23 11:57:07;;;;;;;34.13;10.00;;;;;;;14.87;56.07;99340.53;6208484;22;20019;-88
2022/09/23 11:59:54;;;;;;;25.67;9.52;;;;;;;14.70;57.00;99307.69;6261110;22;20015;-88
2022/09/23 12:02:56;;;;;;;28.60;9.93;;;;;;;14.88;57.38;99336.63;6260208;22;20054;-89
2022/09/23 12:05:26;;;;;;;19.00;8.55;;;;;;;14.85;56.15;99336.53;6207993;22;20019;-87
2022/09/23 12:08:11;;;;;;;25.60;10.13;;;;;;;14.87;55.44;99337.00;6262449;22;20030;-88
2022/09/23 12:10:56;;;;;;;26.55;8.30;;;;;;;14.89;55.91;99346.50;6206953;22;20599;-87
2022/09/23 12:13:55;;;;;;;23.63;9.43;;;;;;;14.89;55.44;99335.50;6208796;22;20020;-89
2022/09/23 12:16:58;;;;;;;16.15;8.27;;;;;;;14.87;55.81;99331.50;6237911;22;20107;-86
2022/09/23 12:19:40;;;;;;;16.55;8.00;;;;;;;14.94;56.52;99326.22;6259064;22;20023;-87